Time;durP1;ratioP1;P1;durP2;ratioP2;P2;SDS_P1;SDS_P2;PMS_P1;PMS_P2;Temp;Humidity;BMP_temperature;BMP_pressure;BME280_temperature;BME280_humidity;BME280_pressure;Samples;Min_cycle;Max_cycle;Signal;HPM_P1;HPM_P2
2022/08/20 00:02:21;;;;;;;33.08;20.02;;;;;;;-145.69;100.00;71131.78;5075998;28;20213;-77
2022/08/20 00:04:47;;;;;;;31.45;21.17;;;;;;;-145.69;100.00;71137.75;5075848;28;20238;-76
2022/08/20 00:07:15;;;;;;;33.03;20.27;;;;;;;-145.69;100.00;71141.72;5076081;28;20202;-75
2022/08/20 00:09:42;;;;;;;34.72;20.95;;;;;;;-145.69;100.00;71137.75;5075781;28;20256;-76
2022/08/20 00:12:12;;;;;;;36.92;21.73;;;;;;;-145.69;100.00;71145.72;5076032;28;20249;-76
2022/08/20 00:14:39;;;;;;;34.75;21.38;;;;;;;-145.69;100.00;71147.69;5075960;28;20198;-76
2022/08/20 00:17:06;;;;;;;32.63;19.48;;;;;;;-145.69;100.00;71147.69;5075366;28;20199;-76
2022/08/20 00:19:32;;;;;;;33.30;20.08;;;;;;;-145.69;100.00;71139.75;5075940;28;20206;-76
2022/08/20 00:21:59;;;;;;;41.05;21.35;;;;;;;-145.69;100.00;71139.75;5075877;28;20195;-77
2022/08/20 00:24:25;;;;;;;36.92;20.35;;;;;;;-145.69;100.00;71141.72;5075414;28;20229;-77
2022/08/20 00:26:51;;;;;;;32.95;19.10;;;;;;;-145.69;100.00;71133.78;5075646;28;20210;-75
2022/08/20 00:29:19;;;;;;;27.80;17.98;;;;;;;-145.69;100.00;71155.66;5074540;28;20203;-76
2022/08/20 00:31:46;;;;;;;27.85;17.90;;;;;;;-145.69;100.00;71165.59;5074798;28;20195;-75
2022/08/20 00:34:12;;;;;;;28.38;16.67;;;;;;;-145.69;100.00;71187.50;5075496;28;20198;-76
2022/08/20 00:36:39;;;;;;;28.45;17.25;;;;;;;-145.69;100.00;71187.50;5075582;28;20194;-76
2022/08/20 00:39:05;;;;;;;39.20;20.75;;;;;;;-145.69;100.00;71179.53;5075570;28;20204;-76
2022/08/20 00:41:32;;;;;;;36.00;20.85;;;;;;;-145.69;100.00;71189.47;5075466;28;20238;-78
2022/08/20 00:44:08;;;;;;;32.63;20.17;;;;;;;-145.69;100.00;71197.44;5075153;28;20230;-76
2022/08/20 00:46:38;;;;;;;39.92;22.52;;;;;;;-145.69;100.00;71183.50;5075071;28;20187;-75
2022/08/20 00:49:07;;;;;;;41.70;22.15;;;;;;;-145.69;100.00;71181.53;5075190;28;20268;-75
2022/08/20 00:51:39;;;;;;;47.83;23.65;;;;;;;-145.69;100.00;71181.53;5075243;28;20205;-77
2022/08/20 00:54:10;;;;;;;45.63;22.02;;;;;;;-145.69;100.00;71179.53;5072529;28;20210;-78
2022/08/20 00:56:39;;;;;;;42.17;23.13;;;;;;;-145.69;100.00;71171.56;5054970;28;20231;-76
2022/08/20 00:59:10;;;;;;;44.30;21.52;;;;;;;-145.69;100.00;71177.53;5054731;28;20648;-76
2022/08/20 01:01:38;;;;;;;50.55;24.50;;;;;;;-145.69;100.00;71171.56;5073020;28;20235;-76
2022/08/20 01:04:05;;;;;;;48.10;24.97;;;;;;;-145.69;100.00;71171.56;5074687;28;20458;-76
2022/08/20 01:06:31;;;;;;;50.05;23.50;;;;;;;-145.69;100.00;71173.56;5074861;28;20202;-76
2022/08/20 01:09:00;;;;;;;45.15;22.25;;;;;;;-145.69;100.00;71171.56;5055582;28;20218;-75
2022/08/20 01:11:32;;;;;;;44.47;22.80;;;;;;;-145.69;100.00;71171.56;5054735;28;20200;-77
2022/08/20 01:13:59;;;;;;;46.00;22.23;;;;;;;-145.69;100.00;71167.59;5054969;28;20211;-77
2022/08/20 01:16:30;;;;;;;41.90;22.42;;;;;;;-145.69;100.00;71167.59;5072760;28;20206;-76
2022/08/20 01:18:59;;;;;;;42.95;22.67;;;;;;;-145.69;100.00;71167.59;5074536;28;20202;-77
2022/08/20 01:21:27;;;;;;;37.58;19.40;;;;;;;-145.69;100.00;71167.59;5074522;28;20244;-76
2022/08/20 01:23:59;;;;;;;36.53;19.33;;;;;;;-145.69;100.00;71167.59;5074447;28;20269;-76
2022/08/20 01:26:30;;;;;;;33.95;18.92;;;;;;;-145.69;100.00;71171.56;5074661;28;20213;-75
2022/08/20 01:29:00;;;;;;;39.83;20.40;;;;;;;-145.69;100.00;71173.56;5074403;28;20199;-76
2022/08/20 01:31:30;;;;;;;41.38;20.20;;;;;;;-145.69;100.00;71173.56;5054585;28;20357;-77
2022/08/20 01:33:58;;;;;;;33.67;18.77;;;;;;;-145.69;100.00;71171.56;5054474;28;20573;-77
2022/08/20 01:36:34;;;;;;;38.67;19.98;;;;;;;-145.69;100.00;71167.59;5054274;28;20210;-77
2022/08/20 01:39:01;;;;;;;44.80;20.63;;;;;;;-145.69;100.00;71167.59;5054413;28;20203;-77
2022/08/20 01:41:42;;;;;;;37.70;20.75;;;;;;;-145.69;100.00;71171.56;5070307;28;20285;-74
2022/08/20 01:44:11;;;;;;;35.25;19.08;;;;;;;-145.69;100.00;71171.56;5074298;28;20321;-76
2022/08/20 01:46:41;;;;;;;34.03;18.75;;;;;;;-145.69;100.00;71177.53;5073695;28;20654;-77
2022/08/20 01:49:12;;;;;;;32.95;18.33;;;;;;;-145.69;100.00;71169.59;5074172;28;20207;-77
2022/08/20 01:51:38;;;;;;;36.90;20.30;;;;;;;-145.69;100.00;71169.59;5054033;28;20203;-75
2022/08/20 01:54:06;;;;;;;37.03;20.27;;;;;;;-145.69;100.00;71171.56;5054162;28;20202;-77
2022/08/20 01:56:35;;;;;;;31.65;17.45;;;;;;;-145.69;100.00;71175.56;5072507;28;20236;-76
2022/08/20 01:59:06;;;;;;;29.00;17.15;;;;;;;-145.69;100.00;71171.56;5073604;28;20206;-77
2022/08/20 02:01:35;;;;;;;33.90;17.77;;;;;;;-145.69;100.00;71171.56;5073781;28;20308;-79
2022/08/20 02:04:05;;;;;;;32.95;17.85;;;;;;;-145.69;100.00;71163.63;5073694;28;20223;-77
2022/08/20 02:06:34;;;;;;;33.58;18.02;;;;;;;-145.69;100.00;71163.63;5073262;28;20202;-76
2022/08/20 02:09:02;;;;;;;35.72;17.88;;;;;;;-145.69;100.00;71165.59;5073536;28;20226;-77
2022/08/20 02:11:30;;;;;;;33.58;17.38;;;;;;;-145.69;100.00;71167.59;5073580;28;20677;-77
2022/08/20 02:13:58;;;;;;;32.58;16.67;;;;;;;-145.69;100.00;71159.63;5073161;28;20613;-78
2022/08/20 02:16:29;;;;;;;31.33;16.77;;;;;;;-145.69;100.00;71159.63;5072998;28;20557;-77
2022/08/20 02:18:58;;;;;;;37.60;21.75;;;;;;;-145.69;100.00;71163.63;5072478;28;20791;-77
2022/08/20 02:21:28;;;;;;;26.42;15.45;;;;;;;-145.69;100.00;71161.63;5073788;28;20198;-76
2022/08/20 02:23:55;;;;;;;26.65;15.63;;;;;;;-145.69;100.00;71159.63;5072871;28;20202;-76
2022/08/20 02:26:22;;;;;;;27.92;15.73;;;;;;;-145.69;100.00;71157.66;5073170;28;20281;-76
2022/08/20 02:28:50;;;;;;;27.73;14.93;;;;;;;-145.69;100.00;71171.56;5073492;28;20206;-76
2022/08/20 02:31:21;;;;;;;28.35;16.15;;;;;;;-145.69;100.00;71171.56;5072930;28;20206;-77
2022/08/20 02:33:48;;;;;;;25.42;14.00;;;;;;;-145.69;100.00;71173.56;5072956;28;20557;-77
2022/08/20 02:36:16;;;;;;;21.27;12.60;;;;;;;-145.69;100.00;71173.56;5073303;28;20210;-76
2022/08/20 02:38:43;;;;;;;26.20;13.57;;;;;;;-145.69;100.00;71179.53;5073209;28;20213;-76
2022/08/20 02:41:11;;;;;;;23.15;12.90;;;;;;;-145.69;100.00;71181.53;5072600;28;20199;-76
2022/08/20 02:43:37;;;;;;;17.67;10.55;;;;;;;-145.69;100.00;71195.47;5073138;28;20205;-76
2022/08/20 02:46:05;;;;;;;19.10;11.43;;;;;;;-145.69;100.00;71203.41;5073037;28;20231;-75
2022/08/20 02:48:34;;;;;;;16.23;10.63;;;;;;;-145.69;100.00;71219.34;5072673;28;20333;-77
2022/08/20 02:51:03;;;;;;;19.67;10.88;;;;;;;-145.69;100.00;71231.28;5072406;28;20198;-76
2022/08/20 02:53:32;;;;;;;21.90;10.55;;;;;;;-145.69;100.00;71237.25;5065314;28;20192;-76
2022/08/20 02:55:59;;;;;;;21.65;14.27;;;;;;;-145.69;100.00;71231.28;5051992;28;20475;-76
2022/08/20 02:58:27;;;;;;;21.98;12.07;;;;;;;-145.69;100.00;71239.22;5052803;28;20199;-76
2022/08/20 03:00:55;;;;;;;21.75;11.98;;;;;;;-145.69;100.00;71239.22;5071169;28;20202;-78
2022/08/20 03:03:23;;;;;;;22.08;12.63;;;;;;;-145.69;100.00;71243.22;5072814;28;20202;-76
2022/08/20 03:05:52;;;;;;;21.98;12.40;;;;;;;-145.69;100.00;71251.16;5072417;28;20261;-77
2022/08/20 03:08:20;;;;;;;24.33;12.45;;;;;;;-145.69;100.00;71267.09;5072649;28;20654;-76
2022/08/20 03:10:47;;;;;;;19.88;11.63;;;;;;;-145.69;100.00;71263.09;5073025;28;20199;-78
2022/08/20 03:13:15;;;;;;;18.48;11.50;;;;;;;-145.69;100.00;71267.09;5072937;28;20199;-76
2022/08/20 03:15:43;;;;;;;17.17;10.77;;;;;;;-145.69;100.00;71281.00;5072348;28;20195;-76
2022/08/20 03:18:11;;;;;;;19.30;10.55;;;;;;;-145.69;100.00;71279.03;5072550;28;20559;-77
2022/08/20 03:20:38;;;;;;;27.80;11.85;;;;;;;-145.69;100.00;71281.00;5072139;28;20195;-77
2022/08/20 03:23:06;;;;;;;19.50;10.77;;;;;;;-145.69;100.00;71290.97;5072605;28;20202;-77
2022/08/20 03:25:33;;;;;;;16.58;9.40;;;;;;;-145.69;100.00;71302.91;5072672;28;20230;-77
2022/08/20 03:28:00;;;;;;;15.70;9.00;;;;;;;-145.69;100.00;71318.81;5072506;28;20199;-77
2022/08/20 03:30:28;;;;;;;19.20;10.48;;;;;;;-145.69;100.00;71306.88;5072249;28;20202;-77
2022/08/20 03:32:55;;;;;;;19.45;12.75;;;;;;;-145.69;100.00;71310.84;5071649;28;20430;-77
2022/08/20 03:35:24;;;;;;;16.13;9.45;;;;;;;-145.69;100.00;71318.81;5072244;28;20653;-77
2022/08/20 03:37:50;;;;;;;20.35;10.20;;;;;;;-145.69;100.00;71322.81;5072532;28;20202;-77
2022/08/20 03:40:20;;;;;;;15.85;9.00;;;;;;;-145.69;100.00;71326.78;5072438;28;20191;-77
2022/08/20 03:42:47;;;;;;;17.45;8.93;;;;;;;-145.69;100.00;71330.75;5072446;28;20206;-77
2022/08/20 03:45:13;;;;;;;17.98;8.65;;;;;;;-145.69;100.00;71338.72;5071847;28;20222;-75
2022/08/20 03:47:41;;;;;;;19.02;9.90;;;;;;;-145.69;100.00;71330.75;5072320;28;20238;-78
2022/08/20 03:50:10;;;;;;;23.35;10.88;;;;;;;-145.69;100.00;71326.78;5072667;28;20206;-77
2022/08/20 03:52:36;;;;;;;17.92;10.38;;;;;;;-145.69;100.00;71338.72;5072292;28;20202;-76
2022/08/20 03:55:04;;;;;;;21.35;11.25;;;;;;;-145.69;100.00;71318.81;5072108;28;20206;-77
2022/08/20 03:57:32;;;;;;;24.23;10.50;;;;;;;-145.69;100.00;71314.84;5072400;28;20210;-76
2022/08/20 03:59:58;;;;;;;82.60;11.65;;;;;;;-145.69;100.00;71314.84;5072098;28;20195;-76
2022/08/20 04:02:26;;;;;;;17.77;10.45;;;;;;;-145.69;100.00;71326.78;5071982;28;20664;-77
2022/08/20 04:04:53;;;;;;;16.52;9.82;;;;;;;-145.69;100.00;71340.72;5076218;28;20227;-76
2022/08/20 04:07:25;;;;;;;17.45;10.02;;;;;;;-145.69;100.00;71342.69;5076085;28;20203;-75
2022/08/20 04:09:52;;;;;;;20.63;11.88;;;;;;;-145.69;100.00;71344.69;5074437;28;20438;-77
2022/08/20 04:12:18;;;;;;;15.82;9.57;;;;;;;-145.69;100.00;71342.69;5075995;28;20457;-76
2022/08/20 04:14:46;;;;;;;15.20;9.65;;;;;;;-145.69;100.00;71356.63;5075429;28;20202;-76
2022/08/20 04:17:13;;;;;;;20.88;11.45;;;;;;;-145.69;100.00;71348.66;5075959;28;20198;-76
2022/08/20 04:19:41;;;;;;;23.95;11.27;;;;;;;-145.69;100.00;71334.75;5075922;28;20234;-75
2022/08/20 04:22:08;;;;;;;26.30;12.55;;;;;;;-145.69;100.00;71334.75;5075435;28;20248;-76
2022/08/20 04:24:36;;;;;;;27.33;13.40;;;;;;;-145.69;100.00;71322.81;5075640;28;20273;-76
2022/08/20 04:27:03;;;;;;;28.92;13.27;;;;;;;-145.69;100.00;71306.88;5075688;28;20248;-76
2022/08/20 04:29:30;;;;;;;26.00;13.10;;;;;;;-145.69;100.00;71320.81;5074918;28;20237;-75
2022/08/20 04:31:59;;;;;;;32.53;13.63;;;;;;;-145.69;100.00;71324.78;5075504;28;20661;-76
2022/08/20 04:34:25;;;;;;;30.02;13.95;;;;;;;-145.69;100.00;71314.84;5075073;28;20198;-76
2022/08/20 04:36:52;;;;;;;36.45;14.85;;;;;;;-145.69;100.00;71314.84;5075550;28;20203;-76
2022/08/20 04:39:18;;;;;;;32.45;14.65;;;;;;;-145.69;100.00;71306.88;5074924;28;20203;-75
2022/08/20 04:41:45;;;;;;;33.72;15.02;;;;;;;-145.69;100.00;71302.91;5075398;28;20627;-78
2022/08/20 04:44:11;;;;;;;107.90;16.05;;;;;;;-145.69;100.00;71330.75;5075352;28;20557;-76
2022/08/20 04:46:39;;;;;;;29.02;12.02;;;;;;;-145.69;100.00;71326.78;5074814;28;20237;-77
2022/08/20 04:49:07;;;;;;;28.08;11.80;;;;;;;-145.69;100.00;71320.81;5075063;28;20207;-75
2022/08/20 04:51:34;;;;;;;26.15;11.43;;;;;;;-145.69;100.00;71312.84;5069396;28;20287;-76
2022/08/20 04:54:01;;;;;;;26.88;11.85;;;;;;;-145.69;100.00;71306.88;5055149;28;20207;-76
2022/08/20 04:56:30;;;;;;;26.70;12.73;;;;;;;-145.69;100.00;71277.03;5073963;28;20209;-75
2022/08/20 04:58:58;;;;;;;23.65;12.10;;;;;;;-145.69;100.00;71275.03;5074916;28;20688;-76
2022/08/20 05:01:25;;;;;;;23.42;11.95;;;;;;;-145.69;100.00;71277.03;5074758;28;20199;-78
2022/08/20 05:03:53;;;;;;;28.88;13.05;;;;;;;-145.69;100.00;71271.06;5074925;28;20610;-76
2022/08/20 05:06:23;;;;;;;27.80;12.73;;;;;;;-145.69;100.00;71263.09;5074937;28;20237;-76
2022/08/20 05:08:50;;;;;;;32.80;15.68;;;;;;;-145.69;100.00;71255.16;5074742;28;20272;-78
2022/08/20 05:11:16;;;;;;;41.65;16.55;;;;;;;-145.69;100.00;71227.28;5074646;28;20199;-76
2022/08/20 05:13:42;;;;;;;30.55;15.10;;;;;;;-145.69;100.00;71219.34;5074941;28;20198;-74
2022/08/20 05:16:09;;;;;;;34.65;14.52;;;;;;;-145.69;100.00;71205.41;5074136;28;20203;-78
2022/08/20 05:18:35;;;;;;;34.83;15.32;;;;;;;-145.69;100.00;71207.38;5074400;28;20218;-77
2022/08/20 05:21:04;;;;;;;30.33;14.05;;;;;;;-145.69;100.00;71203.41;5074701;28;20290;-78
2022/08/20 05:23:33;;;;;;;31.45;12.90;;;;;;;-145.69;100.00;71199.44;5074424;28;20272;-78
2022/08/20 05:26:00;;;;;;;19.23;10.57;;;;;;;-145.69;100.00;71199.44;5074251;28;20268;-77
2022/08/20 05:28:31;;;;;;;26.55;11.70;;;;;;;-145.69;100.00;71209.38;5074601;28;20205;-77
2022/08/20 05:30:59;;;;;;;18.45;11.07;;;;;;;-145.69;100.00;71211.38;5074340;28;20737;-75
2022/08/20 05:33:27;;;;;;;24.33;10.85;;;;;;;-145.69;100.00;71219.34;5074098;28;20653;-76
2022/08/20 05:35:55;;;;;;;18.60;9.23;;;;;;;-145.69;100.00;71217.34;5074159;28;20206;-76
2022/08/20 05:38:24;;;;;;;19.02;10.65;;;;;;;-145.69;100.00;71207.38;5074220;28;20203;-76
2022/08/20 05:40:52;;;;;;;18.13;10.48;;;;;;;-145.69;100.00;71199.44;5073872;28;20255;-77
2022/08/20 05:43:18;;;;;;;18.63;10.27;;;;;;;-145.69;100.00;71199.44;5074020;28;20620;-77
2022/08/20 05:45:50;;;;;;;19.77;10.27;;;;;;;-145.69;100.00;71207.38;5074467;28;20222;-78
2022/08/20 05:48:19;;;;;;;22.02;11.18;;;;;;;-145.69;100.00;71203.41;5074014;28;20795;-77
2022/08/20 05:50:47;;;;;;;18.80;10.68;;;;;;;-145.69;100.00;71201.41;5073140;28;20680;-77
2022/08/20 05:53:15;;;;;;;17.92;10.25;;;;;;;-145.69;100.00;71195.47;5074030;28;20198;-78
2022/08/20 05:55:42;;;;;;;19.83;11.13;;;;;;;-145.69;100.00;71195.47;5074123;28;20211;-78
2022/08/20 05:58:17;;;;;;;23.73;10.82;;;;;;;-145.69;100.00;71187.50;5073686;28;20600;-78
2022/08/20 06:00:43;;;;;;;20.90;11.00;;;;;;;-145.69;100.00;71187.50;5073574;28;20301;-77
2022/08/20 06:05:54;;;;;;;21.75;11.57;;;;;;;-145.69;100.00;71165.59;5073434;28;20766;-78
2022/08/20 06:08:20;;;;;;;20.23;10.75;;;;;;;-145.69;100.00;71141.72;5073227;28;20228;-77
2022/08/20 06:10:47;;;;;;;23.45;12.30;;;;;;;-145.69;100.00;71133.78;5073502;28;20198;-77
2022/08/20 06:13:15;;;;;;;23.27;11.70;;;;;;;-145.69;100.00;71115.88;5073562;28;20198;-78
2022/08/20 06:15:41;;;;;;;25.08;12.35;;;;;;;-145.69;100.00;71111.88;5073590;28;20205;-77
2022/08/20 06:18:09;;;;;;;25.50;13.30;;;;;;;-145.69;100.00;71088.00;5073473;28;20199;-77
2022/08/20 06:20:37;;;;;;;22.00;12.38;;;;;;;-145.69;100.00;71066.13;5073491;28;20199;-76
2022/08/20 06:23:04;;;;;;;21.20;11.52;;;;;;;-145.69;100.00;71040.25;5073291;28;20735;-76
2022/08/20 06:25:30;;;;;;;24.40;11.95;;;;;;;-145.69;100.00;71026.31;5072865;28;20276;-76
2022/08/20 06:27:57;;;;;;;22.42;11.27;;;;;;;-145.69;100.00;71004.44;5072056;28;20203;-77
2022/08/20 06:30:25;;;;;;;22.33;10.95;;;;;;;-145.69;100.00;71042.25;5073284;28;20199;-78
2022/08/20 06:32:51;;;;;;;18.00;9.93;;;;;;;-145.69;100.00;71040.25;5073223;28;20226;-76
2022/08/20 06:35:18;;;;;;;17.75;9.63;;;;;;;-145.69;100.00;71008.41;5073134;28;20210;-76
2022/08/20 06:37:44;;;;;;;18.70;9.43;;;;;;;-145.69;100.00;70992.50;5073025;28;20199;-76
2022/08/20 06:40:18;;;;;;;19.98;10.10;;;;;;;-145.69;100.00;70954.69;5072868;28;20202;-78
2022/08/20 06:42:45;;;;;;;16.25;9.35;;;;;;;-145.69;100.00;70978.56;5073142;28;20233;-78
2022/08/20 06:45:15;;;;;;;14.82;8.40;;;;;;;-145.69;100.00;70962.66;5055631;28;20206;-78
2022/08/20 06:47:45;;;;;;;12.18;8.23;;;;;;;-145.69;100.00;70958.69;5053134;28;20233;-78
2022/08/20 06:50:14;;;;;;;13.80;8.55;;;;;;;-145.69;100.00;70946.75;5053133;28;20199;-78
2022/08/20 06:52:41;;;;;;;15.43;7.65;;;;;;;-145.69;100.00;70938.78;5053051;28;20258;-75
2022/08/20 06:55:10;;;;;;;14.55;7.68;;;;;;;-145.69;100.00;70891.03;5071737;28;20198;-77
2022/08/20 06:57:37;;;;;;;12.25;7.28;;;;;;;-145.69;100.00;70912.91;5072956;28;20206;-76
2022/08/20 07:00:06;;;;;;;10.68;6.75;;;;;;;-145.69;100.00;70954.69;5073077;28;20256;-76
2022/08/20 07:02:32;;;;;;;14.75;6.82;;;;;;;-145.69;100.00;70952.72;5073085;28;20205;-76
2022/08/20 07:05:00;;;;;;;8.93;6.13;;;;;;;-145.69;100.00;70916.91;5073015;28;20213;-76
2022/08/20 07:07:27;;;;;;;10.23;6.18;;;;;;;-145.69;100.00;70881.09;5072924;28;20608;-76
2022/08/20 07:09:59;;;;;;;9.23;5.68;;;;;;;-145.69;100.00;70827.38;5073046;28;20213;-76
2022/08/20 07:12:25;;;;;;;7.13;5.00;;;;;;;-145.69;100.00;70805.47;5073117;28;20198;-76
2022/08/20 07:14:52;;;;;;;10.13;5.35;;;;;;;-145.69;100.00;70777.63;5072907;28;20199;-75
2022/08/20 07:17:18;;;;;;;7.60;4.78;;;;;;;-145.69;100.00;70813.44;5072791;28;20565;-77
2022/08/20 07:19:44;;;;;;;7.47;5.18;;;;;;;-145.69;100.00;70801.50;5072812;28;20206;-75
2022/08/20 07:22:13;;;;;;;8.25;4.53;;;;;;;-145.69;100.00;70781.59;5072626;28;20202;-75
2022/08/20 07:24:40;;;;;;;9.35;4.60;;;;;;;-145.69;100.00;70735.84;5072754;28;20195;-77
2022/08/20 07:27:06;;;;;;;6.50;4.63;;;;;;;-145.69;100.00;70763.69;5072673;28;20233;-76
2022/08/20 07:34:57;;;;;;;6.88;4.63;;;;;;;-145.69;100.00;70773.66;5072755;28;20186;-77
2022/08/20 07:37:25;;;;;;;10.98;4.90;;;;;;;-145.69;100.00;70777.63;5072580;28;20203;-77
2022/08/20 07:39:52;;;;;;;8.93;5.10;;;;;;;-145.69;100.00;70815.44;5076799;28;20199;-76
2022/08/20 07:42:18;;;;;;;7.72;5.18;;;;;;;-145.69;100.00;70881.09;5076552;28;20248;-77
2022/08/20 07:44:45;;;;;;;10.63;5.07;;;;;;;-145.69;100.00;70904.97;5076544;28;20199;-76
2022/08/20 07:47:12;;;;;;;11.02;5.43;;;;;;;-145.69;100.00;70920.88;5076171;28;20596;-78
2022/08/20 07:49:39;;;;;;;11.80;6.35;;;;;;;-145.69;100.00;70930.81;5070499;28;20557;-76
2022/08/20 07:52:06;;;;;;;13.18;5.70;;;;;;;-145.69;100.00;70897.00;5075337;28;20200;-77
2022/08/20 07:54:36;;;;;;;8.05;5.13;;;;;;;-145.69;100.00;70841.28;5076373;28;20201;-77
2022/08/20 07:57:03;;;;;;;7.55;4.63;;;;;;;-145.69;100.00;70767.69;5076396;28;20297;-76
2022/08/20 07:59:31;;;;;;;9.13;4.70;;;;;;;-145.69;100.00;70751.75;5067721;28;20227;-76
2022/08/20 08:01:58;;;;;;;6.68;4.60;;;;;;;-145.69;100.00;70711.97;5066927;28;20662;-76
2022/08/20 08:04:24;;;;;;;7.00;4.60;;;;;;;-145.69;100.00;70650.28;5056651;28;20242;-76
2022/08/20 08:06:51;;;;;;;5.80;3.75;;;;;;;-145.69;100.00;70602.56;5076235;28;20684;-76
2022/08/20 08:09:18;;;;;;;5.35;3.92;;;;;;;-145.69;100.00;70574.69;5075908;28;20199;-76
2022/08/20 08:11:49;;;;;;;5.45;3.75;;;;;;;-145.69;100.00;70544.84;5076070;28;20202;-77
2022/08/20 08:14:20;;;;;;;9.57;4.55;;;;;;;-145.69;100.00;70598.56;5075711;28;20198;-77
2022/08/20 08:16:46;;;;;;;9.43;4.55;;;;;;;-145.69;100.00;70634.38;5076063;28;20203;-77
2022/08/20 08:19:17;;;;;;;6.97;4.68;;;;;;;-145.69;100.00;70662.22;5075704;28;20202;-76
2022/08/20 08:21:44;;;;;;;10.88;4.97;;;;;;;-145.69;100.00;70676.16;5075871;28;20206;-77
2022/08/20 08:24:10;;;;;;;6.93;4.40;;;;;;;-145.69;100.00;70604.53;5074947;28;20442;-76
2022/08/20 08:26:37;;;;;;;6.38;4.38;;;;;;;-145.69;100.00;70686.09;5075115;28;20249;-75
2022/08/20 08:29:06;;;;;;;5.80;4.47;;;;;;;-145.69;100.00;70731.88;5075746;28;20217;-76
2022/08/20 08:31:32;;;;;;;7.97;4.20;;;;;;;-145.69;100.00;70698.03;5076793;28;20538;-77
2022/08/20 08:33:59;;;;;;;6.15;4.20;;;;;;;-145.69;100.00;70698.03;5075473;28;20199;-76
2022/08/20 08:36:26;;;;;;;6.03;4.32;;;;;;;-145.69;100.00;70626.41;5075492;28;20211;-77
2022/08/20 08:38:54;;;;;;;6.50;4.35;;;;;;;-145.69;100.00;70584.66;5075425;28;20199;-77
2022/08/20 08:41:30;;;;;;;5.63;4.10;;;;;;;-145.69;100.00;70538.88;5070747;28;20206;-78
2022/08/20 08:44:03;;;;;;;6.90;3.70;;;;;;;-145.69;100.00;70520.97;5055788;28;20286;-78
2022/08/20 08:46:33;;;;;;;6.38;4.35;;;;;;;-145.69;100.00;70552.81;5075280;28;20230;-77
2022/08/20 08:49:01;;;;;;;12.00;4.38;;;;;;;-145.69;100.00;70515.00;5074880;28;20206;-76
2022/08/20 08:51:36;;;;;;;8.10;4.05;;;;;;;-145.69;100.00;70429.47;5075108;28;20722;-76
2022/08/20 08:54:04;;;;;;;7.95;3.25;;;;;;;-145.69;100.00;70421.50;5061795;28;20195;-76
2022/08/20 08:56:31;;;;;;;6.35;4.18;;;;;;;-145.69;100.00;70407.59;5074021;28;20199;-75
2022/08/20 08:59:03;;;;;;;4.68;3.30;;;;;;;-145.69;100.00;70447.38;5075139;28;20205;-76
2022/08/20 09:01:33;;;;;;;4.65;2.95;;;;;;;-145.69;99.49;70503.06;5075007;28;20206;-75
2022/08/20 09:04:03;;;;;;;6.57;3.25;;;;;;;-145.69;100.00;70489.16;5075032;28;20214;-75
2022/08/20 09:06:31;;;;;;;6.03;3.53;;;;;;;-145.69;95.52;70558.78;5074446;28;20316;-77
2022/08/20 09:09:00;;;;;;;3.72;3.15;;;;;;;-145.69;100.00;70564.75;5074771;28;20202;-77
2022/08/20 09:11:28;;;;;;;10.25;3.28;;;;;;;-145.69;100.00;70590.63;5074965;28;20230;-76
2022/08/20 09:13:54;;;;;;;4.82;3.13;;;;;;;-145.69;100.00;70634.38;5073945;28;20203;-76
2022/08/20 09:16:22;;;;;;;7.05;3.90;;;;;;;-145.69;100.00;70650.28;5062490;28;20245;-76
2022/08/20 09:18:50;;;;;;;6.15;3.83;;;;;;;-145.69;100.00;70654.28;5067056;28;20195;-75
2022/08/20 09:21:17;;;;;;;6.40;3.58;;;;;;;-145.69;100.00;70602.56;5073747;28;20438;-75
2022/08/20 09:23:44;;;;;;;5.00;3.15;;;;;;;-145.69;100.00;70614.47;5074364;28;20203;-75
2022/08/20 09:26:12;;;;;;;5.68;2.95;;;;;;;-145.69;100.00;70606.53;5074538;28;20223;-75
2022/08/20 09:28:38;;;;;;;4.88;3.20;;;;;;;-145.69;100.00;70632.38;5057567;28;20208;-77
2022/08/20 09:31:05;;;;;;;4.28;2.65;;;;;;;-145.69;100.00;70642.34;5054403;28;20203;-77
2022/08/20 09:33:32;;;;;;;4.13;2.90;;;;;;;-145.69;100.00;70686.09;5060471;28;20549;-78
2022/08/20 09:35:59;;;;;;;4.57;2.10;;;;;;;-145.69;100.00;70686.09;5074297;28;20206;-78
2022/08/20 09:38:26;;;;;;;4.03;2.75;;;;;;;-145.69;100.00;70733.84;5074202;28;20203;-78
2022/08/20 09:40:52;;;;;;;5.03;2.95;;;;;;;-145.69;100.00;70783.59;5064667;28;20547;-77
2022/08/20 09:43:19;;;;;;;10.02;3.03;;;;;;;-145.69;100.00;70867.16;5054168;28;20200;-77
2022/08/20 09:45:45;;;;;;;4.93;3.33;;;;;;;-145.69;100.00;70952.72;5055242;28;20206;-77
2022/08/20 09:48:12;;;;;;;8.63;3.22;;;;;;;-145.69;100.00;71038.25;5073098;28;20234;-77
2022/08/20 09:50:43;;;;;;;8.80;3.97;;;;;;;-145.69;100.00;71052.19;5073854;28;20202;-76
2022/08/20 09:53:12;;;;;;;6.70;4.72;;;;;;;-145.69;100.00;71068.13;5072740;28;20210;-75
2022/08/20 09:55:41;;;;;;;14.10;5.38;;;;;;;-145.69;100.00;71060.16;5073960;28;20202;-75
2022/08/20 09:58:14;;;;;;;11.00;5.45;;;;;;;-145.69;100.00;71036.28;5073822;28;20199;-76
2022/08/20 10:00:40;;;;;;;6.90;3.75;;;;;;;-145.69;100.00;71014.38;5073661;28;20215;-75
2022/08/20 10:03:07;;;;;;;7.45;4.13;;;;;;;-145.69;100.00;70970.63;5072788;28;20244;-75
2022/08/20 10:05:33;;;;;;;6.30;4.38;;;;;;;-145.69;100.00;70978.56;5072882;28;20199;-76
2022/08/20 10:08:00;;;;;;;5.85;3.30;;;;;;;-145.69;100.00;70952.72;5072782;28;20233;-76
2022/08/20 10:10:28;;;;;;;7.88;3.92;;;;;;;-145.69;100.00;70914.91;5073716;28;20211;-75
2022/08/20 10:12:54;;;;;;;4.00;3.00;;;;;;;-145.69;100.00;70908.94;5073639;28;20199;-76
2022/08/20 10:15:20;;;;;;;3.95;2.67;;;;;;;-145.69;100.00;70934.81;5073995;28;20530;-75
2022/08/20 10:17:47;;;;;;;7.75;2.33;;;;;;;-145.69;100.00;70970.63;5073048;28;20194;-75
2022/08/20 10:20:14;;;;;;;3.10;2.35;;;;;;;-145.69;100.00;70984.53;5073392;28;20202;-75
2022/08/20 10:22:41;;;;;;;6.45;3.00;;;;;;;-145.69;100.00;70956.69;5073606;28;20213;-75
2022/08/20 10:25:08;;;;;;;2.53;2.30;;;;;;;-145.69;100.00;70952.72;5073207;28;20645;-76
2022/08/20 10:27:37;;;;;;;4.97;2.30;;;;;;;-145.69;100.00;70966.63;5073018;28;20462;-75
2022/08/20 10:30:06;;;;;;;2.90;1.90;;;;;;;-145.69;100.00;70960.66;5073509;28;20202;-76
2022/08/20 10:32:32;;;;;;;4.35;2.40;;;;;;;-145.69;100.00;70938.78;5072886;28;20646;-76
2022/08/20 10:34:59;;;;;;;3.35;2.40;;;;;;;-145.69;100.00;70908.94;5073361;28;20203;-75
2022/08/20 10:37:25;;;;;;;2.95;1.98;;;;;;;-145.69;100.00;70930.81;5073265;28;20207;-75
2022/08/20 10:39:53;;;;;;;2.67;2.17;;;;;;;-145.69;100.00;70899.00;5073261;28;20221;-75
2022/08/20 10:42:19;;;;;;;5.43;2.00;;;;;;;-145.69;100.00;70914.91;5072982;28;20653;-76
2022/08/20 10:44:47;;;;;;;3.08;1.98;;;;;;;-145.69;100.00;70875.13;5073030;28;20212;-77
2022/08/20 10:47:16;;;;;;;2.90;2.08;;;;;;;-145.69;100.00;70871.13;5072851;28;20242;-76
2022/08/20 10:49:43;;;;;;;2.58;1.85;;;;;;;-145.69;100.00;70891.03;5066827;28;20657;-76
2022/08/20 10:52:10;;;;;;;2.72;1.98;;;;;;;-145.69;100.00;70863.19;5052997;28;20201;-76
2022/08/20 10:54:40;;;;;;;5.00;2.10;;;;;;;-145.69;100.00;70821.41;5052924;28;20204;-76
2022/08/20 10:57:06;;;;;;;2.22;1.67;;;;;;;-145.69;100.00;70795.53;5065541;28;20199;-75
2022/08/20 10:59:38;;;;;;;2.17;1.58;;;;;;;-145.69;100.00;70759.72;5073107;28;20202;-77
2022/08/20 11:02:05;;;;;;;2.08;1.65;;;;;;;-145.69;100.00;70694.06;5072691;28;20208;-77
2022/08/20 11:04:32;;;;;;;3.42;1.98;;;;;;;-145.69;100.00;70630.41;5072987;28;20202;-74
2022/08/20 11:06:58;;;;;;;1.55;1.38;;;;;;;-145.69;100.00;70624.44;5072727;28;20230;-76
2022/08/20 11:09:25;;;;;;;2.78;1.58;;;;;;;-145.69;100.00;70604.53;5072717;28;21327;-75
2022/08/20 11:11:52;;;;;;;2.42;1.30;;;;;;;-145.69;100.00;70487.16;5072812;28;20199;-76